< < Back
Terminal Aerodrome Forecast


Current Version              Previous Versions:   1  2  3  4  5  6  7  8  9  

Terminal Aerodrome Forecast

255
FTUS42 KILM 241000 AAB
TAFILM
TAF AMD
KILM 241039Z 2411/2506 20008KT 6SM -RA VCSH BKN024
     FM241600 21014G20KT P6SM VCSH SCT007 OVC015
     FM250000 20010KT 3SM BR SCT003 OVC012=

Latest METAR

209
SAUS70 KWBC 241300 RRC
MTRILM
METAR KILM 241253Z 23010KT 8SM OVC006 21/19 A2988 RMK AO2 SLP117
T02060194


USA.gov is the U.S. government's official web portal to all federal, state and local government web resources and services.